Time;durP1;ratioP1;P1;durP2;ratioP2;P2;SDS_P1;SDS_P2;PMS_P1;PMS_P2;Temp;Humidity;BMP_temperature;BMP_pressure;BME280_temperature;BME280_humidity;BME280_pressure;Samples;Min_cycle;Max_cycle;Signal;HPM_P1;HPM_P2
2021/03/22 00:01:15;;;;;;;31.60;18.23;;;-0.10;99.90;;;;;;6240338;23;20024;-62
2021/03/22 00:03:41;;;;;;;30.63;17.85;;;-0.10;99.90;;;;;;6241328;23;20020;-62
2021/03/22 00:06:07;;;;;;;28.65;16.85;;;-0.10;99.90;;;;;;6240049;23;20055;-62
2021/03/22 00:08:34;;;;;;;24.88;16.20;;;-0.10;99.90;;;;;;6243437;23;20039;-62
2021/03/22 00:11:01;;;;;;;28.23;17.45;;;-0.10;99.90;;;;;;6239684;23;20016;-62
2021/03/22 00:13:28;;;;;;;30.95;14.77;;;-0.10;99.90;;;;;;6240070;23;20016;-63
2021/03/22 00:15:58;;;;;;;28.23;15.52;;;0.00;99.90;;;;;;6213438;23;20059;-62
2021/03/22 00:18:27;;;;;;;26.52;16.00;;;0.00;99.90;;;;;;6242489;23;20032;-62
2021/03/22 00:20:53;;;;;;;25.92;15.77;;;0.00;99.90;;;;;;6239938;23;20031;-63
2021/03/22 00:23:19;;;;;;;29.00;16.70;;;0.00;99.90;;;;;;6213443;23;20071;-62
2021/03/22 00:25:46;;;;;;;23.85;15.23;;;0.00;99.90;;;;;;6239922;23;20017;-62
2021/03/22 00:28:13;;;;;;;25.30;14.80;;;0.00;99.90;;;;;;6240179;23;20043;-62
2021/03/22 00:30:41;;;;;;;26.35;14.50;;;0.00;99.90;;;;;;6239903;23;20064;-62
2021/03/22 00:33:09;;;;;;;25.23;14.43;;;0.10;99.90;;;;;;6243388;23;20027;-62
2021/03/22 00:35:36;;;;;;;21.13;13.23;;;0.00;99.90;;;;;;6239958;23;20055;-62
2021/03/22 00:38:02;;;;;;;20.77;12.07;;;0.10;99.90;;;;;;6240182;23;20404;-62
2021/03/22 00:40:32;;;;;;;27.67;12.50;;;0.10;99.90;;;;;;6239911;23;20047;-62
2021/03/22 00:42:58;;;;;;;25.40;14.07;;;0.10;99.90;;;;;;6242523;23;20051;-62
2021/03/22 00:45:25;;;;;;;24.70;12.27;;;0.00;99.90;;;;;;6240033;23;20098;-62
2021/03/22 00:47:53;;;;;;;23.52;12.68;;;0.00;99.90;;;;;;6240042;23;20457;-62
2021/03/22 00:50:22;;;;;;;28.38;14.50;;;0.00;99.90;;;;;;6239928;23;20436;-62
2021/03/22 00:52:48;;;;;;;21.90;14.38;;;0.10;99.90;;;;;;6240247;23;20394;-62
2021/03/22 00:55:15;;;;;;;21.10;11.30;;;0.00;99.90;;;;;;6239511;23;20541;-62
2021/03/22 00:57:41;;;;;;;23.98;11.88;;;0.00;99.90;;;;;;6243484;23;20019;-62
2021/03/22 01:00:09;;;;;;;20.48;11.60;;;0.00;99.90;;;;;;6239704;23;20043;-62
2021/03/22 01:02:35;;;;;;;21.45;11.68;;;0.00;99.90;;;;;;6240016;23;20016;-63
2021/03/22 01:05:03;;;;;;;20.08;9.98;;;0.00;99.90;;;;;;6213212;23;20066;-62
2021/03/22 01:07:29;;;;;;;21.33;10.40;;;0.00;99.90;;;;;;6242587;23;20027;-61
2021/03/22 01:09:56;;;;;;;22.08;12.23;;;0.00;99.90;;;;;;6239892;23;20051;-62
2021/03/22 01:12:22;;;;;;;17.50;9.60;;;0.00;99.90;;;;;;6241669;23;20046;-62
2021/03/22 01:14:48;;;;;;;20.85;10.68;;;0.00;99.90;;;;;;6241679;23;20418;-62
2021/03/22 01:17:16;;;;;;;16.25;10.48;;;0.00;99.90;;;;;;6239824;23;20027;-62
2021/03/22 01:19:42;;;;;;;21.27;11.35;;;0.00;99.90;;;;;;6241673;23;20521;-62
2021/03/22 01:22:08;;;;;;;20.38;11.20;;;0.00;99.90;;;;;;6245372;23;20047;-62
2021/03/22 01:24:34;;;;;;;20.50;10.02;;;0.00;99.90;;;;;;6241746;23;20047;-62
2021/03/22 01:27:06;;;;;;;20.20;10.40;;;0.00;99.90;;;;;;6241605;23;20020;-62
2021/03/22 01:29:38;;;;;;;17.35;10.30;;;0.00;99.90;;;;;;6241673;23;20512;-62
2021/03/22 01:32:07;;;;;;;14.55;8.75;;;-0.10;99.90;;;;;;6243200;23;20035;-62
2021/03/22 01:34:33;;;;;;;15.15;9.00;;;0.00;99.90;;;;;;6215026;23;20047;-62
2021/03/22 01:37:00;;;;;;;16.15;9.43;;;0.00;99.90;;;;;;6217687;23;20331;-61
2021/03/22 01:39:36;;;;;;;14.55;9.15;;;0.00;99.90;;;;;;6214702;23;20055;-62
2021/03/22 01:42:24;;;;;;;15.38;9.02;;;0.00;99.90;;;;;;6245562;23;20091;-62
2021/03/22 01:44:58;;;;;;;17.92;9.13;;;-0.10;99.90;;;;;;6241585;23;20414;-62
2021/03/22 01:47:29;;;;;;;17.23;9.20;;;0.00;99.90;;;;;;6217536;23;20070;-62
2021/03/22 01:50:09;;;;;;;14.07;8.00;;;-0.10;99.90;;;;;;6241309;23;20046;-62
2021/03/22 01:52:38;;;;;;;14.07;8.52;;;0.00;99.90;;;;;;6244740;23;20047;-62
2021/03/22 01:55:07;;;;;;;14.95;8.05;;;0.00;99.90;;;;;;6241334;23;20087;-62
2021/03/22 01:57:36;;;;;;;23.58;9.45;;;-0.10;99.90;;;;;;6241356;23;20089;-62
2021/03/22 02:03:07;;;;;;;19.45;9.02;;;-0.10;99.90;;;;;;6220853;22;20024;-65
2021/03/22 02:05:35;;;;;;;13.23;8.48;;;-0.10;99.90;;;;;;6244688;23;20464;-65
2021/03/22 02:08:17;;;;;;;17.17;7.75;;;-0.20;99.90;;;;;;6248555;23;20039;-65
2021/03/22 02:10:44;;;;;;;12.10;6.85;;;-0.20;99.90;;;;;;6244670;23;20039;-65
2021/03/22 02:13:13;;;;;;;12.50;6.82;;;-0.20;99.90;;;;;;6244749;23;20020;-65
2021/03/22 02:15:41;;;;;;;12.57;7.38;;;-0.30;99.90;;;;;;6244686;23;20066;-65
2021/03/22 02:18:25;;;;;;;14.23;6.70;;;-0.30;99.90;;;;;;6244785;23;20044;-65
2021/03/22 02:21:30;;;;;;;12.63;8.38;;;-0.30;99.90;;;;;;6244779;23;20043;-65
2021/03/22 02:24:44;;;;;;;10.32;6.40;;;-0.30;99.90;;;;;;6183708;23;20078;-65
2021/03/22 02:27:29;;;;;;;12.90;6.10;;;-0.30;99.90;;;;;;6248441;23;20048;-64
2021/03/22 02:30:33;;;;;;;13.02;6.43;;;-0.30;99.90;;;;;;6216002;23;20029;-64
2021/03/22 02:33:20;;;;;;;10.85;5.47;;;-0.30;99.90;;;;;;6241788;23;20411;-65
2021/03/22 02:36:06;;;;;;;10.30;5.47;;;-0.30;99.90;;;;;;6240996;23;20023;-64
2021/03/22 02:38:58;;;;;;;14.00;6.15;;;-0.40;99.90;;;;;;6241048;23;20050;-64
2021/03/22 02:41:35;;;;;;;8.77;5.28;;;-0.40;99.90;;;;;;6237134;23;20043;-64
2021/03/22 02:44:24;;;;;;;8.57;4.95;;;-0.50;99.90;;;;;;6240937;23;20047;-64
2021/03/22 02:46:59;;;;;;;9.93;5.07;;;-0.50;99.90;;;;;;6240999;23;20036;-64
2021/03/22 02:49:30;;;;;;;11.85;5.53;;;-0.50;99.90;;;;;;6240891;23;20098;-64
2021/03/22 02:52:11;;;;;;;14.57;5.13;;;-0.50;99.90;;;;;;6240809;23;20020;-64
2021/03/22 02:54:57;;;;;;;7.78;4.25;;;-0.40;99.90;;;;;;6240817;23;20078;-64
2021/03/22 02:58:02;;;;;;;10.13;5.28;;;-0.50;99.90;;;;;;6241046;23;20472;-64
2021/03/22 03:00:36;;;;;;;8.57;4.25;;;-0.40;99.90;;;;;;6226637;23;20388;-65
2021/03/22 03:03:12;;;;;;;10.38;4.88;;;-0.50;99.90;;;;;;6240846;23;20048;-64
2021/03/22 03:05:38;;;;;;;12.63;5.20;;;-0.40;99.90;;;;;;6241393;23;20024;-64
2021/03/22 03:08:12;;;;;;;8.07;4.00;;;-0.40;99.90;;;;;;6240840;23;20054;-64
2021/03/22 03:10:38;;;;;;;7.85;4.80;;;-0.50;99.90;;;;;;6240658;23;20373;-64
2021/03/22 03:13:04;;;;;;;8.32;4.85;;;-0.50;99.90;;;;;;6240970;23;20400;-64
2021/03/22 03:15:31;;;;;;;11.10;5.30;;;-0.50;99.90;;;;;;6214173;23;20031;-64
2021/03/22 03:17:57;;;;;;;10.43;4.07;;;-0.60;99.90;;;;;;6240462;23;20027;-64
2021/03/22 03:20:27;;;;;;;6.80;4.25;;;-0.60;99.90;;;;;;6216641;23;20020;-64
2021/03/22 03:22:55;;;;;;;8.57;3.78;;;-0.60;99.90;;;;;;6240398;23;20408;-64
2021/03/22 03:25:23;;;;;;;12.63;4.18;;;-0.60;99.90;;;;;;6244177;23;20077;-64
2021/03/22 03:27:49;;;;;;;8.45;5.18;;;-0.60;99.90;;;;;;6240351;23;20046;-64
2021/03/22 03:30:25;;;;;;;13.82;4.90;;;-0.60;99.90;;;;;;6213492;23;20453;-65
2021/03/22 03:32:53;;;;;;;10.38;4.30;;;-0.70;99.90;;;;;;6240188;23;20102;-64
2021/03/22 03:35:20;;;;;;;9.10;3.78;;;-0.70;99.90;;;;;;6240445;23;20040;-64
2021/03/22 03:37:47;;;;;;;10.30;4.43;;;-0.70;99.90;;;;;;6240052;23;20099;-64
2021/03/22 03:40:18;;;;;;;6.25;3.25;;;-0.70;99.90;;;;;;6240490;23;20131;-64
2021/03/22 03:42:44;;;;;;;7.07;3.70;;;-0.70;99.90;;;;;;6213768;23;20579;-64
2021/03/22 03:45:13;;;;;;;7.43;3.35;;;-0.70;99.90;;;;;;6213569;23;20046;-64
2021/03/22 03:47:41;;;;;;;6.55;3.28;;;-0.80;99.90;;;;;;6240200;23;20043;-64
2021/03/22 03:50:29;;;;;;;5.25;2.88;;;-0.90;99.90;;;;;;6215537;23;20056;-64
2021/03/22 03:52:56;;;;;;;9.32;3.03;;;-0.90;99.90;;;;;;6213613;23;20101;-64
2021/03/22 03:55:26;;;;;;;10.23;3.80;;;-1.00;99.90;;;;;;6240435;23;20024;-64
2021/03/22 03:57:53;;;;;;;6.00;3.42;;;-1.00;99.90;;;;;;6240417;23;20759;-64
2021/03/22 04:00:32;;;;;;;4.60;2.10;;;-1.00;99.90;;;;;;6242372;23;20030;-64
2021/03/22 04:03:26;;;;;;;5.75;2.35;;;-1.10;99.90;;;;;;6238512;23;20409;-64
2021/03/22 04:05:57;;;;;;;4.68;2.97;;;-1.20;99.90;;;;;;6239835;23;20024;-64
2021/03/22 04:08:24;;;;;;;10.75;2.58;;;-1.40;99.90;;;;;;6240214;23;20105;-64
2021/03/22 04:10:51;;;;;;;5.88;2.38;;;-1.50;99.90;;;;;;6240138;23;20027;-64
2021/03/22 04:13:18;;;;;;;9.27;2.53;;;-1.60;99.90;;;;;;6239991;23;20400;-64
2021/03/22 04:15:44;;;;;;;5.47;2.08;;;-1.60;99.90;;;;;;6240273;23;20023;-64
2021/03/22 04:18:10;;;;;;;4.05;2.10;;;-1.60;99.90;;;;;;6240248;23;20016;-64
2021/03/22 04:20:37;;;;;;;7.00;2.47;;;-1.60;99.90;;;;;;6242243;23;20020;-64
2021/03/22 04:23:04;;;;;;;6.78;3.05;;;-1.80;99.90;;;;;;6240259;23;20027;-64
2021/03/22 04:25:30;;;;;;;9.18;2.13;;;-1.90;99.90;;;;;;6243197;23;20540;-63
2021/03/22 04:27:56;;;;;;;7.65;2.15;;;-1.90;99.90;;;;;;6239961;23;20054;-64
2021/03/22 04:30:23;;;;;;;4.45;2.55;;;-1.90;99.90;;;;;;6213264;23;20107;-63
2021/03/22 04:32:50;;;;;;;5.68;2.00;;;-2.00;99.90;;;;;;6240094;23;20040;-64
2021/03/22 04:35:18;;;;;;;8.15;2.20;;;-2.00;99.90;;;;;;6239290;23;20074;-63
2021/03/22 04:37:44;;;;;;;4.53;1.83;;;-2.00;99.90;;;;;;6240244;23;20386;-64
2021/03/22 04:40:11;;;;;;;8.68;2.60;;;-2.20;99.90;;;;;;6240122;23;20027;-64
2021/03/22 04:42:37;;;;;;;2.70;1.65;;;-2.40;99.90;;;;;;6239958;23;20043;-64
2021/03/22 04:45:06;;;;;;;6.75;2.30;;;-2.40;99.90;;;;;;6238212;23;20027;-63
2021/03/22 04:47:32;;;;;;;10.57;2.33;;;-2.50;99.90;;;;;;6239905;23;20059;-64
2021/03/22 04:49:58;;;;;;;8.10;2.00;;;-2.50;99.90;;;;;;6239862;23;20028;-63
2021/03/22 04:52:24;;;;;;;3.45;1.38;;;-2.60;99.90;;;;;;6239238;23;20047;-63
2021/03/22 04:54:50;;;;;;;4.43;1.80;;;-2.60;99.90;;;;;;6240045;23;20020;-63
2021/03/22 04:57:31;;;;;;;3.92;1.70;;;-2.60;99.90;;;;;;6239907;23;20058;-63
2021/03/22 04:59:57;;;;;;;5.07;1.85;;;-2.60;99.90;;;;;;6213242;23;20020;-64
2021/03/22 05:02:24;;;;;;;4.78;1.90;;;-2.60;99.90;;;;;;6239341;23;20112;-63
2021/03/22 05:04:50;;;;;;;4.13;1.83;;;-2.60;99.90;;;;;;6240257;23;20043;-64
2021/03/22 05:07:18;;;;;;;6.30;1.83;;;-2.60;99.90;;;;;;6212763;23;20504;-63
2021/03/22 05:09:45;;;;;;;5.47;1.67;;;-2.60;99.90;;;;;;6240957;23;20024;-64
2021/03/22 05:12:13;;;;;;;4.07;1.48;;;-2.50;99.90;;;;;;6212854;23;20036;-63
2021/03/22 05:14:39;;;;;;;7.88;1.75;;;-2.40;99.90;;;;;;6239719;23;20380;-64
2021/03/22 05:17:06;;;;;;;6.65;1.00;;;-2.40;99.90;;;;;;6239657;23;20477;-64
2021/03/22 05:19:32;;;;;;;7.28;1.77;;;-2.30;99.90;;;;;;6216224;23;20051;-63
2021/03/22 05:21:59;;;;;;;6.30;1.45;;;-2.30;99.90;;;;;;6239632;23;20016;-64
2021/03/22 05:24:26;;;;;;;5.15;1.60;;;-2.20;99.90;;;;;;6216683;23;20416;-63
2021/03/22 05:26:53;;;;;;;8.25;1.63;;;-2.10;99.90;;;;;;6239696;23;20027;-63
2021/03/22 05:29:24;;;;;;;8.07;1.73;;;-2.10;99.90;;;;;;6239515;23;20369;-63
2021/03/22 05:31:51;;;;;;;5.75;1.17;;;-1.90;99.90;;;;;;6239855;23;20052;-64
2021/03/22 05:34:17;;;;;;;4.57;1.15;;;-1.80;99.90;;;;;;6240042;23;20480;-64
2021/03/22 05:36:44;;;;;;;5.88;2.00;;;-1.80;99.90;;;;;;6239459;23;20059;-63
2021/03/22 05:39:10;;;;;;;10.23;2.10;;;-1.70;99.90;;;;;;6238247;23;20024;-63
2021/03/22 05:41:47;;;;;;;8.45;0.93;;;-1.60;99.90;;;;;;6239575;23;20048;-64
2021/03/22 05:44:43;;;;;;;8.73;3.42;;;-1.50;99.90;;;;;;6239538;23;20230;-63
2021/03/22 05:47:20;;;;;;;4.22;0.93;;;-1.40;99.90;;;;;;6235990;23;20479;-64
2021/03/22 05:49:46;;;;;;;3.42;1.20;;;-1.40;99.90;;;;;;6243335;23;20391;-63
2021/03/22 05:52:30;;;;;;;5.68;1.25;;;-1.40;99.90;;;;;;6239482;23;20027;-63
2021/03/22 05:55:20;;;;;;;6.05;1.77;;;-1.40;99.90;;;;;;6243812;23;20019;-63
2021/03/22 05:57:57;;;;;;;3.47;1.15;;;-1.30;99.90;;;;;;6241170;23;20547;-64
2021/03/22 06:00:48;;;;;;;6.47;1.10;;;-1.10;99.90;;;;;;6244109;23;20031;-63
2021/03/22 06:03:32;;;;;;;1.52;1.30;;;-0.80;99.90;;;;;;6240901;23;20039;-65
2021/03/22 06:06:05;;;;;;;4.28;0.82;;;-0.50;99.90;;;;;;6240204;23;20020;-63
2021/03/22 06:08:46;;;;;;;3.55;1.02;;;0.00;99.90;;;;;;6241090;23;20503;-63
2021/03/22 06:11:31;;;;;;;5.85;1.23;;;0.50;99.90;;;;;;6241583;23;20031;-64
2021/03/22 06:14:18;;;;;;;7.28;1.02;;;0.90;99.90;;;;;;6241412;23;20460;-65
2021/03/22 06:16:52;;;;;;;6.20;1.27;;;1.70;99.90;;;;;;6241281;23;20020;-63
2021/03/22 06:19:20;;;;;;;4.65;1.20;;;2.20;99.90;;;;;;6241138;23;20020;-61
2021/03/22 06:21:48;;;;;;;7.90;1.58;;;2.80;99.90;;;;;;6242658;23;20514;-62
2021/03/22 06:24:24;;;;;;;8.45;2.13;;;3.10;99.90;;;;;;6240512;23;20044;-61
2021/03/22 06:26:53;;;;;;;7.88;1.90;;;3.20;99.90;;;;;;6242602;23;20044;-63
2021/03/22 06:29:31;;;;;;;15.45;2.42;;;3.50;99.90;;;;;;6241064;23;20020;-63
2021/03/22 06:32:07;;;;;;;8.65;2.38;;;4.80;99.90;;;;;;6244359;23;20131;-65
2021/03/22 06:34:48;;;;;;;6.55;2.55;;;5.80;99.90;;;;;;6241009;23;20413;-65
2021/03/22 06:37:18;;;;;;;19.55;3.42;;;6.40;99.90;;;;;;6216829;23;20457;-65
2021/03/22 06:39:46;;;;;;;9.30;2.63;;;6.80;99.90;;;;;;6213876;23;20400;-68
2021/03/22 06:42:25;;;;;;;9.43;2.72;;;6.80;94.60;;;;;;6242357;23;20024;-65
2021/03/22 06:44:53;;;;;;;8.52;2.67;;;7.50;96.20;;;;;;6214234;23;20043;-64
2021/03/22 06:47:39;;;;;;;7.50;1.63;;;8.80;84.60;;;;;;6243943;23;20016;-62
2021/03/22 06:50:28;;;;;;;5.55;1.90;;;9.80;74.40;;;;;;6241059;23;20050;-63
2021/03/22 06:52:54;;;;;;;3.78;1.92;;;10.20;70.90;;;;;;6241560;23;20077;-63
2021/03/22 06:55:33;;;;;;;7.90;2.20;;;9.90;70.20;;;;;;6241178;23;20054;-63
2021/03/22 06:57:59;;;;;;;7.65;1.65;;;9.40;68.60;;;;;;6242080;23;20026;-62
2021/03/22 07:00:44;;;;;;;2.13;1.30;;;9.60;69.90;;;;;;6214152;23;20020;-62
2021/03/22 07:03:25;;;;;;;2.80;1.20;;;10.30;67.90;;;;;;6241178;23;20081;-62
2021/03/22 07:05:51;;;;;;;9.10;2.28;;;10.20;63.90;;;;;;6240844;23;20476;-65
2021/03/22 07:08:37;;;;;;;10.02;2.92;;;10.90;63.00;;;;;;6240297;23;20024;-62
2021/03/22 07:11:08;;;;;;;9.50;3.30;;;12.30;56.20;;;;;;6241115;23;20091;-62
2021/03/22 07:13:35;;;;;;;8.98;3.47;;;13.60;54.60;;;;;;6245109;23;20024;-62
2021/03/22 07:16:10;;;;;;;7.40;2.88;;;14.30;51.70;;;;;;6241151;23;20062;-62
2021/03/22 07:18:37;;;;;;;10.45;3.47;;;14.10;56.80;;;;;;6240756;23;20123;-62
2021/03/22 07:21:15;;;;;;;4.53;2.25;;;14.50;51.80;;;;;;6240747;23;20020;-63
2021/03/22 07:23:46;;;;;;;6.03;2.30;;;15.00;49.10;;;;;;6240581;23;20027;-63
2021/03/22 07:26:21;;;;;;;9.30;2.28;;;15.40;47.50;;;;;;6240833;23;20043;-64
2021/03/22 07:29:06;;;;;;;4.03;2.30;;;15.90;48.20;;;;;;6213688;23;20024;-63
2021/03/22 07:31:47;;;;;;;4.78;2.40;;;16.40;45.80;;;;;;6214221;23;20047;-64
2021/03/22 07:34:40;;;;;;;7.78;3.38;;;16.30;44.10;;;;;;6243782;23;20020;-64
2021/03/22 07:37:28;;;;;;;3.45;1.80;;;16.20;45.80;;;;;;6240487;23;20102;-66
2021/03/22 07:39:57;;;;;;;5.55;1.90;;;16.20;44.00;;;;;;6240960;23;20020;-66
2021/03/22 07:42:51;;;;;;;4.10;1.73;;;16.90;42.90;;;;;;6213968;23;20040;-67
2021/03/22 07:45:49;;;;;;;4.50;1.80;;;18.00;42.30;;;;;;6217671;23;20020;-67
2021/03/22 07:48:27;;;;;;;7.32;2.15;;;19.00;39.40;;;;;;6240292;23;20481;-70
2021/03/22 07:51:18;;;;;;;5.43;1.70;;;19.20;38.60;;;;;;6240481;23;20028;-66
2021/03/22 07:53:54;;;;;;;4.55;2.20;;;19.40;38.30;;;;;;6240371;23;20043;-63
2021/03/22 07:56:37;;;;;;;5.80;2.83;;;19.40;39.70;;;;;;6238189;23;20031;-65
2021/03/22 07:59:06;;;;;;;5.47;1.75;;;19.70;38.00;;;;;;6240342;23;20412;-66
2021/03/22 08:01:38;;;;;;;8.13;2.38;;;19.80;40.00;;;;;;6240584;23;20028;-68
2021/03/22 08:04:22;;;;;;;3.67;2.47;;;20.30;42.30;;;;;;6241103;23;20027;-66
2021/03/22 08:07:24;;;;;;;6.20;2.30;;;20.80;39.50;;;;;;6240304;23;20020;-63
2021/03/22 08:13:29;;;;;;;5.78;2.83;;;21.40;35.10;;;;;;6148294;23;20061;-72
2021/03/22 08:16:05;;;;;;;3.25;2.45;;;21.80;35.70;;;;;;6100185;23;20130;-74
2021/03/22 08:18:51;;;;;;;5.47;1.77;;;22.00;35.40;;;;;;6149940;23;20053;-71
2021/03/22 08:21:20;;;;;;;4.95;1.85;;;22.10;35.20;;;;;;6148259;23;20131;-72
2021/03/22 08:24:10;;;;;;;4.45;2.05;;;22.50;32.20;;;;;;6149873;23;20068;-73
2021/03/22 08:26:45;;;;;;;3.70;2.50;;;22.70;31.50;;;;;;6146437;23;20018;-74
2021/03/22 08:29:17;;;;;;;9.20;2.85;;;23.10;32.70;;;;;;6148478;23;20045;-77
2021/03/22 08:31:50;;;;;;;6.60;2.30;;;23.20;35.00;;;;;;6148924;23;20053;-69
2021/03/22 08:34:24;;;;;;;;;;;22.70;31.90;;;;;;6148192;23;20056;-69
2021/03/22 08:37:15;;;;;;;6.22;2.45;;;21.90;30.80;;;;;;6149128;23;19916;-71
2021/03/22 08:39:56;;;;;;;5.22;2.58;;;21.80;34.10;;;;;;6149233;23;20041;-70
2021/03/22 08:42:29;;;;;;;4.68;2.05;;;22.30;30.70;;;;;;6152515;23;20017;-70
2021/03/22 08:45:20;;;;;;;5.00;2.03;;;21.90;34.00;;;;;;6148904;23;20040;-66
2021/03/22 08:48:04;;;;;;;3.15;2.10;;;20.90;35.90;;;;;;6149747;23;20076;-64
2021/03/22 08:50:34;;;;;;;3.70;2.15;;;19.90;36.20;;;;;;6147804;23;20104;-65
2021/03/22 08:53:09;;;;;;;3.47;2.20;;;20.30;34.80;;;;;;6151998;23;20532;-65
2021/03/22 08:55:47;;;;;;;4.78;2.53;;;20.70;31.60;;;;;;6149422;23;20487;-63
2021/03/22 08:58:35;;;;;;;4.55;1.63;;;21.40;32.60;;;;;;6150076;23;20122;-72
2021/03/22 09:01:07;;;;;;;3.45;1.55;;;22.10;31.20;;;;;;6149248;23;20359;-73
2021/03/22 09:03:41;;;;;;;3.40;1.88;;;22.40;30.40;;;;;;6150836;23;20029;-68
2021/03/22 09:06:15;;;;;;;1.92;1.45;;;23.10;31.50;;;;;;6149506;23;20049;-67
2021/03/22 09:09:00;;;;;;;4.05;1.55;;;23.20;29.00;;;;;;6150829;23;20025;-67
2021/03/22 09:11:29;;;;;;;1.80;1.35;;;22.90;30.70;;;;;;6147266;23;20026;-67
2021/03/22 09:14:13;;;;;;;3.83;1.48;;;23.10;32.80;;;;;;6149322;23;20351;-68
2021/03/22 09:16:51;;;;;;;3.42;1.27;;;23.70;29.20;;;;;;6149528;23;20097;-68
2021/03/22 09:19:28;;;;;;;2.45;1.42;;;24.40;29.10;;;;;;6149404;23;20022;-68
2021/03/22 09:21:54;;;;;;;2.92;1.70;;;24.70;30.10;;;;;;6147569;23;20072;-67
2021/03/22 09:27:17;;;;;;;1.73;1.10;;;24.70;27.40;;;;;;6147775;23;20479;-78
2021/03/22 09:29:43;;;;;;;1.77;1.30;;;24.40;28.30;;;;;;6126920;23;20028;-73
2021/03/22 09:32:24;;;;;;;2.00;1.40;;;24.30;28.50;;;;;;6150386;23;20021;-73
2021/03/22 09:34:53;;;;;;;3.33;1.40;;;23.70;28.40;;;;;;6155112;23;20024;-73
2021/03/22 09:37:41;;;;;;;4.90;1.10;;;23.80;27.70;;;;;;6151339;23;20025;-67
2021/03/22 09:40:19;;;;;;;2.65;1.65;;;23.80;27.50;;;;;;6149976;23;20403;-66
2021/03/22 09:43:04;;;;;;;4.35;2.38;;;23.80;28.90;;;;;;6150163;23;20041;-69
2021/03/22 09:45:35;;;;;;;2.38;1.33;;;24.20;28.00;;;;;;6152561;23;20040;-68
2021/03/22 09:48:20;;;;;;;4.47;1.20;;;24.20;27.70;;;;;;6149132;23;20049;-68
2021/03/22 09:50:50;;;;;;;1.65;1.60;;;23.80;28.00;;;;;;6123561;23;20033;-70
2021/03/22 09:53:44;;;;;;;2.35;1.20;;;24.10;28.90;;;;;;6150469;23;20105;-72
2021/03/22 09:56:33;;;;;;;3.13;1.08;;;24.00;27.60;;;;;;6149016;23;20532;-71
2021/03/22 09:59:27;;;;;;;3.58;1.00;;;24.20;27.50;;;;;;6150367;23;20021;-71
2021/03/22 10:01:55;;;;;;;2.03;1.30;;;23.20;28.20;;;;;;6176060;23;20036;-71
2021/03/22 10:04:32;;;;;;;2.90;1.08;;;22.80;28.50;;;;;;6150565;23;20045;-70
2021/03/22 10:07:06;;;;;;;3.95;1.45;;;22.70;28.50;;;;;;6150751;23;20021;-71
2021/03/22 10:09:56;;;;;;;3.47;0.98;;;22.50;29.80;;;;;;6149523;23;20945;-70
2021/03/22 10:12:22;;;;;;;1.58;0.90;;;22.60;28.10;;;;;;6148630;23;20079;-69
2021/03/22 10:15:11;;;;;;;4.03;0.70;;;22.70;28.80;;;;;;6148245;23;20021;-71
2021/03/22 10:17:57;;;;;;;1.27;0.95;;;22.80;27.10;;;;;;6150706;23;20443;-75
2021/03/22 10:20:41;;;;;;;3.35;0.65;;;22.40;27.30;;;;;;6150372;23;20048;-73
2021/03/22 10:23:22;;;;;;;3.10;0.77;;;22.10;29.00;;;;;;6153470;23;20028;-69
2021/03/22 10:25:51;;;;;;;2.47;0.50;;;22.10;29.80;;;;;;6150596;23;20022;-73
2021/03/22 10:28:23;;;;;;;2.42;0.70;;;22.20;27.90;;;;;;6151759;23;20021;-72
2021/03/22 10:30:56;;;;;;;2.58;0.75;;;22.10;27.30;;;;;;6149982;23;20462;-72
2021/03/22 10:33:23;;;;;;;2.92;0.52;;;22.20;27.70;;;;;;6127113;23;20025;-72
2021/03/22 10:35:59;;;;;;;3.80;0.60;;;22.20;27.00;;;;;;6148005;23;20060;-72
2021/03/22 10:38:35;;;;;;;38.47;3.00;;;22.20;27.40;;;;;;6150468;23;20032;-71
2021/03/22 10:41:03;;;;;;;2.88;0.28;;;21.90;26.80;;;;;;6149912;23;20111;-72
2021/03/22 10:43:33;;;;;;;0.57;0.30;;;21.50;27.60;;;;;;6152749;23;20391;-72
2021/03/22 10:46:22;;;;;;;7.13;0.88;;;21.50;28.30;;;;;;6124243;23;20047;-73
2021/03/22 10:49:01;;;;;;;4.75;0.68;;;21.30;27.30;;;;;;6148154;23;20055;-73
2021/03/22 10:51:46;;;;;;;0.50;0.38;;;21.20;26.60;;;;;;6149004;23;20056;-75
2021/03/22 10:54:19;;;;;;;1.20;0.77;;;21.30;31.60;;;;;;6149934;23;20077;-70
2021/03/22 10:56:44;;;;;;;4.13;0.45;;;21.00;26.80;;;;;;6152841;23;20033;-71
2021/03/22 10:59:19;;;;;;;1.15;0.40;;;20.70;26.20;;;;;;6146763;23;20037;-68
2021/03/22 11:01:47;;;;;;;1.27;0.30;;;20.60;29.30;;;;;;6149307;23;20024;-70
2021/03/22 11:04:38;;;;;;;3.72;0.68;;;20.00;27.90;;;;;;6149693;23;20447;-69
2021/03/22 11:07:14;;;;;;;0.85;0.45;;;19.80;27.20;;;;;;6151790;23;20018;-71
2021/03/22 11:09:59;;;;;;;1.10;0.55;;;19.60;28.00;;;;;;6148159;23;20055;-73
2021/03/22 11:12:27;;;;;;;8.45;1.13;;;18.90;28.60;;;;;;6173534;23;20021;-69
2021/03/22 11:15:19;;;;;;;1.50;0.47;;;18.50;29.30;;;;;;6179815;23;20029;-77
2021/03/22 11:17:47;;;;;;;0.65;0.20;;;18.10;28.40;;;;;;6128370;23;20410;-81
2021/03/22 11:20:15;;;;;;;1.05;0.30;;;17.80;29.00;;;;;;6178371;23;20024;-72
2021/03/22 11:22:47;;;;;;;2.38;0.73;;;17.90;29.00;;;;;;6179283;23;20024;-73
2021/03/22 11:25:33;;;;;;;0.52;0.40;;;18.00;29.70;;;;;;6153058;23;20036;-72
2021/03/22 11:28:06;;;;;;;1.17;0.52;;;18.20;29.40;;;;;;6131358;23;20021;-71
2021/03/22 11:30:49;;;;;;;1.90;0.32;;;17.60;34.10;;;;;;6153219;23;20051;-72
2021/03/22 11:33:17;;;;;;;1.38;0.15;;;17.20;32.80;;;;;;6155343;23;20052;-71
2021/03/22 11:35:45;;;;;;;3.15;0.20;;;17.00;31.80;;;;;;6129194;23;20118;-73
2021/03/22 11:38:33;;;;;;;1.75;0.35;;;16.80;30.80;;;;;;6182420;23;20024;-71
2021/03/22 11:40:59;;;;;;;4.50;0.40;;;16.10;31.50;;;;;;6153596;23;20413;-73
2021/03/22 11:43:25;;;;;;;5.80;0.30;;;15.70;31.20;;;;;;6130402;23;20017;-71
2021/03/22 11:45:51;;;;;;;3.55;0.90;;;14.80;32.60;;;;;;6128961;23;20100;-73
2021/03/22 11:48:20;;;;;;;1.40;0.40;;;14.50;33.20;;;;;;6153868;23;20049;-72
2021/03/22 11:50:58;;;;;;;0.47;0.38;;;14.50;33.40;;;;;;6181110;23;20111;-74
2021/03/22 11:53:25;;;;;;;2.22;0.52;;;14.20;36.20;;;;;;6153500;23;20076;-74
2021/03/22 11:55:53;;;;;;;2.67;0.45;;;14.00;33.20;;;;;;6153355;23;20071;-71
2021/03/22 11:58:30;;;;;;;1.08;0.50;;;14.10;34.50;;;;;;6179728;23;20027;-74
2021/03/22 12:01:14;;;;;;;1.48;0.68;;;14.10;34.10;;;;;;6153048;23;20375;-71
2021/03/22 12:03:42;;;;;;;1.13;0.60;;;14.20;33.50;;;;;;6181348;23;20071;-72
2021/03/22 12:06:20;;;;;;;1.98;0.50;;;14.00;34.40;;;;;;6179679;23;20025;-73
2021/03/22 12:08:48;;;;;;;6.32;0.77;;;13.70;33.50;;;;;;6156910;23;20021;-70
2021/03/22 12:11:16;;;;;;;3.85;0.57;;;13.40;34.70;;;;;;6178912;23;20053;-72
2021/03/22 12:13:42;;;;;;;4.85;0.47;;;13.40;35.40;;;;;;6179579;23;20432;-71
2021/03/22 12:16:16;;;;;;;1.20;0.70;;;13.30;35.00;;;;;;6179528;23;20096;-71
2021/03/22 12:18:43;;;;;;;2.38;0.57;;;13.30;35.80;;;;;;6153540;23;20020;-71
2021/03/22 12:21:13;;;;;;;6.75;0.88;;;13.60;36.40;;;;;;6153083;23;20048;-70
2021/03/22 12:23:39;;;;;;;5.38;0.60;;;13.40;34.50;;;;;;6177632;23;20025;-71
2021/03/22 12:26:06;;;;;;;3.20;0.85;;;13.20;35.00;;;;;;6179483;23;20359;-69
2021/03/22 12:28:33;;;;;;;2.92;0.70;;;12.80;35.80;;;;;;6179342;23;20025;-69
2021/03/22 12:31:01;;;;;;;0.85;0.60;;;12.50;38.60;;;;;;6177622;23;20059;-71
2021/03/22 12:33:29;;;;;;;1.35;1.25;;;12.40;38.90;;;;;;6155793;23;20032;-73
2021/03/22 12:35:57;;;;;;;2.60;0.70;;;12.20;42.10;;;;;;6179088;23;20060;-71
2021/03/22 12:38:24;;;;;;;1.73;0.80;;;12.20;38.10;;;;;;6156982;23;20024;-70
2021/03/22 12:40:50;;;;;;;6.38;0.80;;;12.00;37.90;;;;;;6153186;23;20073;-73
2021/03/22 12:43:35;;;;;;;2.55;0.73;;;11.80;41.60;;;;;;6153078;23;20048;-71
2021/03/22 12:46:02;;;;;;;2.25;0.70;;;11.50;39.60;;;;;;6128451;23;20093;-71
2021/03/22 12:48:28;;;;;;;0.73;0.73;;;11.10;40.50;;;;;;6179188;23;20025;-71
2021/03/22 12:50:54;;;;;;;3.92;1.08;;;10.90;41.10;;;;;;6153043;23;20049;-73
2021/03/22 12:53:20;;;;;;;5.32;1.10;;;10.70;40.50;;;;;;6154299;23;20020;-70
2021/03/22 12:55:46;;;;;;;8.05;1.08;;;10.40;44.00;;;;;;6153080;23;20091;-74
2021/03/22 12:58:19;;;;;;;5.00;1.33;;;10.20;43.40;;;;;;6181842;23;20067;-73
2021/03/22 13:00:45;;;;;;;;;;;10.50;43.60;;;;;;6179449;23;20024;-72
2021/03/22 13:03:19;;;;;;;3.15;1.52;;;10.70;45.20;;;;;;6181964;23;19936;-71
2021/03/22 13:05:45;;;;;;;7.72;1.55;;;10.80;44.00;;;;;;6179235;23;20075;-72
2021/03/22 13:08:11;;;;;;;3.92;1.33;;;10.90;44.00;;;;;;6183352;23;20021;-72
2021/03/22 13:10:37;;;;;;;6.22;1.23;;;10.90;43.80;;;;;;6179632;23;20052;-72
2021/03/22 13:13:05;;;;;;;6.90;0.93;;;10.50;43.70;;;;;;6180915;23;20029;-72
2021/03/22 13:15:34;;;;;;;2.65;0.85;;;10.30;44.20;;;;;;6130405;23;20059;-73
2021/03/22 13:18:02;;;;;;;4.40;1.15;;;10.20;45.20;;;;;;6130713;23;20354;-74
2021/03/22 13:20:28;;;;;;;3.00;1.15;;;10.20;44.80;;;;;;6154897;23;20056;-72
2021/03/22 13:22:55;;;;;;;2.63;0.80;;;10.10;44.00;;;;;;6156652;23;20344;-72
2021/03/22 13:25:21;;;;;;;5.82;1.17;;;9.90;44.40;;;;;;6179518;23;20460;-72
2021/03/22 13:27:49;;;;;;;6.65;1.30;;;9.50;45.20;;;;;;6182687;23;20110;-70